sensor_id;sensor_type;location;lat;lon;timestamp;P1;durP1;ratioP1;P2;durP2;ratioP2
71639;SDS011;60912;48.968;10.124;2024-03-22T00:01:42;10.67;;;6.57;;
71639;SDS011;60912;48.968;10.124;2024-03-22T00:04:07;8.80;;;5.47;;
71639;SDS011;60912;48.968;10.124;2024-03-22T00:06:32;9.50;;;5.60;;
71639;SDS011;60912;48.968;10.124;2024-03-22T00:08:58;10.30;;;5.27;;
71639;SDS011;60912;48.968;10.124;2024-03-22T00:11:23;8.60;;;5.73;;
71639;SDS011;60912;48.968;10.124;2024-03-22T00:13:48;10.03;;;5.87;;
71639;SDS011;60912;48.968;10.124;2024-03-22T00:16:14;9.82;;;5.68;;
71639;SDS011;60912;48.968;10.124;2024-03-22T00:18:39;9.70;;;5.70;;
71639;SDS011;60912;48.968;10.124;2024-03-22T00:21:04;9.33;;;5.90;;
71639;SDS011;60912;48.968;10.124;2024-03-22T00:23:30;9.60;;;5.90;;
71639;SDS011;60912;48.968;10.124;2024-03-22T00:25:55;9.02;;;5.38;;
71639;SDS011;60912;48.968;10.124;2024-03-22T00:28:21;8.83;;;5.57;;
71639;SDS011;60912;48.968;10.124;2024-03-22T00:30:46;9.63;;;5.80;;
71639;SDS011;60912;48.968;10.124;2024-03-22T00:33:12;9.13;;;5.30;;
71639;SDS011;60912;48.968;10.124;2024-03-22T00:35:37;9.45;;;5.85;;
71639;SDS011;60912;48.968;10.124;2024-03-22T00:38:02;10.87;;;6.20;;
71639;SDS011;60912;48.968;10.124;2024-03-22T00:40:28;10.60;;;5.87;;
71639;SDS011;60912;48.968;10.124;2024-03-22T00:42:54;9.55;;;5.40;;
71639;SDS011;60912;48.968;10.124;2024-03-22T00:45:20;10.20;;;5.73;;
71639;SDS011;60912;48.968;10.124;2024-03-22T00:47:45;11.10;;;5.67;;
71639;SDS011;60912;48.968;10.124;2024-03-22T00:50:10;12.60;;;6.20;;
71639;SDS011;60912;48.968;10.124;2024-03-22T00:52:37;9.88;;;5.55;;
71639;SDS011;60912;48.968;10.124;2024-03-22T00:55:03;9.33;;;5.33;;
71639;SDS011;60912;48.968;10.124;2024-03-22T00:57:28;9.77;;;5.53;;
71639;SDS011;60912;48.968;10.124;2024-03-22T00:59:54;10.67;;;5.60;;
71639;SDS011;60912;48.968;10.124;2024-03-22T01:02:19;8.27;;;5.10;;
71639;SDS011;60912;48.968;10.124;2024-03-22T01:04:44;14.67;;;5.70;;
71639;SDS011;60912;48.968;10.124;2024-03-22T01:07:09;9.70;;;5.57;;
71639;SDS011;60912;48.968;10.124;2024-03-22T01:09:35;9.03;;;5.30;;
71639;SDS011;60912;48.968;10.124;2024-03-22T01:12:00;9.63;;;5.67;;
71639;SDS011;60912;48.968;10.124;2024-03-22T01:14:25;9.43;;;5.50;;
71639;SDS011;60912;48.968;10.124;2024-03-22T01:16:51;11.20;;;5.80;;
71639;SDS011;60912;48.968;10.124;2024-03-22T01:19:16;8.90;;;5.30;;
71639;SDS011;60912;48.968;10.124;2024-03-22T01:21:42;9.37;;;5.43;;
71639;SDS011;60912;48.968;10.124;2024-03-22T01:24:07;10.40;;;5.60;;
71639;SDS011;60912;48.968;10.124;2024-03-22T01:26:32;13.10;;;6.87;;
71639;SDS011;60912;48.968;10.124;2024-03-22T01:28:57;8.87;;;5.47;;
71639;SDS011;60912;48.968;10.124;2024-03-22T01:31:23;8.73;;;5.70;;
71639;SDS011;60912;48.968;10.124;2024-03-22T01:33:48;8.57;;;5.68;;
71639;SDS011;60912;48.968;10.124;2024-03-22T01:36:13;10.40;;;5.80;;
71639;SDS011;60912;48.968;10.124;2024-03-22T01:38:39;10.83;;;5.43;;
71639;SDS011;60912;48.968;10.124;2024-03-22T01:41:04;10.90;;;5.93;;
71639;SDS011;60912;48.968;10.124;2024-03-22T01:43:29;9.40;;;5.73;;
71639;SDS011;60912;48.968;10.124;2024-03-22T01:45:55;10.63;;;5.43;;
71639;SDS011;60912;48.968;10.124;2024-03-22T01:48:20;10.43;;;5.73;;
71639;SDS011;60912;48.968;10.124;2024-03-22T01:50:46;8.98;;;5.43;;
71639;SDS011;60912;48.968;10.124;2024-03-22T01:53:11;13.60;;;6.03;;
71639;SDS011;60912;48.968;10.124;2024-03-22T01:55:37;9.13;;;5.43;;
71639;SDS011;60912;48.968;10.124;2024-03-22T01:58:03;12.93;;;5.47;;
71639;SDS011;60912;48.968;10.124;2024-03-22T02:00:29;8.77;;;5.57;;
71639;SDS011;60912;48.968;10.124;2024-03-22T02:02:55;9.85;;;5.80;;
71639;SDS011;60912;48.968;10.124;2024-03-22T02:05:21;9.13;;;5.87;;
71639;SDS011;60912;48.968;10.124;2024-03-22T02:07:47;9.00;;;5.40;;
71639;SDS011;60912;48.968;10.124;2024-03-22T02:10:13;12.23;;;5.80;;
71639;SDS011;60912;48.968;10.124;2024-03-22T02:12:39;9.88;;;5.85;;
71639;SDS011;60912;48.968;10.124;2024-03-22T02:15:05;9.23;;;5.57;;
71639;SDS011;60912;48.968;10.124;2024-03-22T02:17:32;10.20;;;5.30;;
71639;SDS011;60912;48.968;10.124;2024-03-22T02:19:58;9.52;;;5.22;;
71639;SDS011;60912;48.968;10.124;2024-03-22T02:22:24;8.20;;;5.15;;
71639;SDS011;60912;48.968;10.124;2024-03-22T02:24:49;7.47;;;4.63;;
71639;SDS011;60912;48.968;10.124;2024-03-22T02:27:15;9.00;;;4.70;;
71639;SDS011;60912;48.968;10.124;2024-03-22T02:29:40;6.90;;;4.87;;
71639;SDS011;60912;48.968;10.124;2024-03-22T02:32:05;8.50;;;5.05;;
71639;SDS011;60912;48.968;10.124;2024-03-22T02:34:31;8.67;;;4.60;;
71639;SDS011;60912;48.968;10.124;2024-03-22T02:36:56;7.70;;;4.73;;
71639;SDS011;60912;48.968;10.124;2024-03-22T02:39:22;8.33;;;4.80;;
71639;SDS011;60912;48.968;10.124;2024-03-22T02:41:47;8.40;;;4.73;;
71639;SDS011;60912;48.968;10.124;2024-03-22T02:44:12;7.93;;;4.57;;
71639;SDS011;60912;48.968;10.124;2024-03-22T02:46:38;9.60;;;5.20;;
71639;SDS011;60912;48.968;10.124;2024-03-22T02:49:03;7.63;;;4.60;;
71639;SDS011;60912;48.968;10.124;2024-03-22T02:51:28;7.83;;;4.80;;
71639;SDS011;60912;48.968;10.124;2024-03-22T02:53:54;8.30;;;4.83;;
71639;SDS011;60912;48.968;10.124;2024-03-22T02:56:19;8.23;;;4.80;;
71639;SDS011;60912;48.968;10.124;2024-03-22T02:58:44;9.73;;;5.33;;
71639;SDS011;60912;48.968;10.124;2024-03-22T03:01:09;9.13;;;5.40;;
71639;SDS011;60912;48.968;10.124;2024-03-22T03:03:35;8.85;;;5.20;;
71639;SDS011;60912;48.968;10.124;2024-03-22T03:06:00;12.80;;;5.90;;
71639;SDS011;60912;48.968;10.124;2024-03-22T03:08:25;10.90;;;6.23;;
71639;SDS011;60912;48.968;10.124;2024-03-22T03:10:51;10.10;;;5.57;;
71639;SDS011;60912;48.968;10.124;2024-03-22T03:13:16;8.57;;;5.17;;
71639;SDS011;60912;48.968;10.124;2024-03-22T03:15:41;8.13;;;4.93;;
71639;SDS011;60912;48.968;10.124;2024-03-22T03:18:07;7.57;;;4.73;;
71639;SDS011;60912;48.968;10.124;2024-03-22T03:20:32;8.87;;;5.10;;
71639;SDS011;60912;48.968;10.124;2024-03-22T03:22:57;10.05;;;5.35;;
71639;SDS011;60912;48.968;10.124;2024-03-22T03:25:25;7.97;;;4.90;;
71639;SDS011;60912;48.968;10.124;2024-03-22T03:27:51;9.60;;;5.38;;
71639;SDS011;60912;48.968;10.124;2024-03-22T03:30:16;8.98;;;5.53;;
71639;SDS011;60912;48.968;10.124;2024-03-22T03:32:42;7.73;;;5.13;;
71639;SDS011;60912;48.968;10.124;2024-03-22T03:35:07;7.93;;;5.03;;
71639;SDS011;60912;48.968;10.124;2024-03-22T03:37:32;9.13;;;5.53;;
71639;SDS011;60912;48.968;10.124;2024-03-22T03:39:58;7.57;;;5.00;;
71639;SDS011;60912;48.968;10.124;2024-03-22T03:42:24;9.30;;;5.30;;
71639;SDS011;60912;48.968;10.124;2024-03-22T03:44:49;7.85;;;4.70;;
71639;SDS011;60912;48.968;10.124;2024-03-22T03:47:14;9.00;;;5.13;;
71639;SDS011;60912;48.968;10.124;2024-03-22T03:49:40;8.95;;;5.40;;
71639;SDS011;60912;48.968;10.124;2024-03-22T03:52:05;9.83;;;5.73;;
71639;SDS011;60912;48.968;10.124;2024-03-22T03:54:31;12.10;;;5.70;;
71639;SDS011;60912;48.968;10.124;2024-03-22T03:56:57;8.82;;;5.00;;
71639;SDS011;60912;48.968;10.124;2024-03-22T03:59:22;8.97;;;5.13;;
71639;SDS011;60912;48.968;10.124;2024-03-22T04:01:47;10.60;;;5.03;;
71639;SDS011;60912;48.968;10.124;2024-03-22T04:04:13;7.80;;;4.70;;
71639;SDS011;60912;48.968;10.124;2024-03-22T04:06:38;8.95;;;5.38;;
71639;SDS011;60912;48.968;10.124;2024-03-22T04:09:03;8.07;;;4.83;;
71639;SDS011;60912;48.968;10.124;2024-03-22T04:11:30;8.70;;;5.15;;
71639;SDS011;60912;48.968;10.124;2024-03-22T04:13:55;9.20;;;5.20;;
71639;SDS011;60912;48.968;10.124;2024-03-22T04:16:21;9.47;;;5.87;;
71639;SDS011;60912;48.968;10.124;2024-03-22T04:18:46;13.30;;;5.60;;
71639;SDS011;60912;48.968;10.124;2024-03-22T04:21:11;10.38;;;5.45;;
71639;SDS011;60912;48.968;10.124;2024-03-22T04:23:37;9.20;;;5.63;;
71639;SDS011;60912;48.968;10.124;2024-03-22T04:26:02;12.10;;;5.43;;
71639;SDS011;60912;48.968;10.124;2024-03-22T04:28:28;9.13;;;5.60;;
71639;SDS011;60912;48.968;10.124;2024-03-22T04:33:26;10.07;;;5.35;;
71639;SDS011;60912;48.968;10.124;2024-03-22T04:35:53;9.15;;;4.88;;
71639;SDS011;60912;48.968;10.124;2024-03-22T04:38:19;8.40;;;5.03;;
71639;SDS011;60912;48.968;10.124;2024-03-22T04:40:44;8.73;;;5.30;;
71639;SDS011;60912;48.968;10.124;2024-03-22T04:43:09;9.63;;;5.30;;
71639;SDS011;60912;48.968;10.124;2024-03-22T04:45:34;10.20;;;5.27;;
71639;SDS011;60912;48.968;10.124;2024-03-22T04:48:03;8.20;;;5.00;;
71639;SDS011;60912;48.968;10.124;2024-03-22T04:50:29;8.35;;;5.35;;
71639;SDS011;60912;48.968;10.124;2024-03-22T04:52:55;8.77;;;4.83;;
71639;SDS011;60912;48.968;10.124;2024-03-22T04:55:20;9.82;;;5.20;;
71639;SDS011;60912;48.968;10.124;2024-03-22T04:57:46;10.27;;;5.23;;
71639;SDS011;60912;48.968;10.124;2024-03-22T05:00:11;9.07;;;5.63;;
71639;SDS011;60912;48.968;10.124;2024-03-22T05:02:37;9.75;;;5.07;;
71639;SDS011;60912;48.968;10.124;2024-03-22T05:05:03;9.63;;;5.47;;
71639;SDS011;60912;48.968;10.124;2024-03-22T05:07:28;9.83;;;4.73;;
71639;SDS011;60912;48.968;10.124;2024-03-22T05:09:54;9.00;;;4.80;;
71639;SDS011;60912;48.968;10.124;2024-03-22T05:12:19;10.53;;;4.60;;
71639;SDS011;60912;48.968;10.124;2024-03-22T05:14:44;7.70;;;4.53;;
71639;SDS011;60912;48.968;10.124;2024-03-22T05:17:10;9.50;;;4.70;;
71639;SDS011;60912;48.968;10.124;2024-03-22T05:19:35;7.90;;;4.60;;
71639;SDS011;60912;48.968;10.124;2024-03-22T05:22:00;10.20;;;4.47;;
71639;SDS011;60912;48.968;10.124;2024-03-22T05:24:26;7.77;;;4.40;;
71639;SDS011;60912;48.968;10.124;2024-03-22T05:26:52;8.00;;;4.65;;
71639;SDS011;60912;48.968;10.124;2024-03-22T05:29:18;7.53;;;4.43;;
71639;SDS011;60912;48.968;10.124;2024-03-22T05:31:47;8.43;;;4.67;;
71639;SDS011;60912;48.968;10.124;2024-03-22T05:34:13;10.70;;;4.35;;
71639;SDS011;60912;48.968;10.124;2024-03-22T05:36:39;7.95;;;4.60;;
71639;SDS011;60912;48.968;10.124;2024-03-22T05:39:05;8.03;;;4.53;;
71639;SDS011;60912;48.968;10.124;2024-03-22T05:41:30;8.27;;;4.93;;
71639;SDS011;60912;48.968;10.124;2024-03-22T05:43:56;9.10;;;4.60;;
71639;SDS011;60912;48.968;10.124;2024-03-22T05:46:21;6.80;;;4.50;;
71639;SDS011;60912;48.968;10.124;2024-03-22T05:48:46;7.47;;;4.38;;
71639;SDS011;60912;48.968;10.124;2024-03-22T05:51:13;7.50;;;4.17;;
71639;SDS011;60912;48.968;10.124;2024-03-22T05:53:39;7.38;;;4.05;;
71639;SDS011;60912;48.968;10.124;2024-03-22T05:56:04;7.43;;;4.13;;
71639;SDS011;60912;48.968;10.124;2024-03-22T05:58:30;6.72;;;4.20;;
71639;SDS011;60912;48.968;10.124;2024-03-22T06:00:56;8.23;;;3.93;;
71639;SDS011;60912;48.968;10.124;2024-03-22T06:03:21;7.23;;;4.03;;
71639;SDS011;60912;48.968;10.124;2024-03-22T06:05:46;7.27;;;4.33;;
71639;SDS011;60912;48.968;10.124;2024-03-22T06:08:12;10.20;;;4.20;;
71639;SDS011;60912;48.968;10.124;2024-03-22T06:10:37;6.77;;;4.30;;
71639;SDS011;60912;48.968;10.124;2024-03-22T06:13:03;7.45;;;4.35;;
71639;SDS011;60912;48.968;10.124;2024-03-22T06:15:29;7.70;;;4.70;;
71639;SDS011;60912;48.968;10.124;2024-03-22T06:17:54;8.10;;;4.60;;
71639;SDS011;60912;48.968;10.124;2024-03-22T06:20:19;7.55;;;4.40;;
71639;SDS011;60912;48.968;10.124;2024-03-22T06:22:45;8.00;;;4.40;;
71639;SDS011;60912;48.968;10.124;2024-03-22T06:25:10;9.30;;;4.70;;
71639;SDS011;60912;48.968;10.124;2024-03-22T06:27:35;7.50;;;4.77;;
71639;SDS011;60912;48.968;10.124;2024-03-22T06:30:01;7.70;;;4.93;;
71639;SDS011;60912;48.968;10.124;2024-03-22T06:32:26;9.88;;;4.93;;
71639;SDS011;60912;48.968;10.124;2024-03-22T06:34:51;9.63;;;5.40;;
71639;SDS011;60912;48.968;10.124;2024-03-22T06:37:17;11.40;;;5.80;;
71639;SDS011;60912;48.968;10.124;2024-03-22T06:39:42;7.50;;;5.10;;
71639;SDS011;60912;48.968;10.124;2024-03-22T06:42:08;7.20;;;5.23;;
71639;SDS011;60912;48.968;10.124;2024-03-22T06:44:33;8.95;;;5.30;;
71639;SDS011;60912;48.968;10.124;2024-03-22T06:46:58;15.63;;;5.50;;
71639;SDS011;60912;48.968;10.124;2024-03-22T06:49:24;9.23;;;6.10;;
71639;SDS011;60912;48.968;10.124;2024-03-22T06:51:50;12.25;;;7.05;;
71639;SDS011;60912;48.968;10.124;2024-03-22T06:54:15;12.13;;;6.47;;
71639;SDS011;60912;48.968;10.124;2024-03-22T06:56:41;10.77;;;6.93;;
71639;SDS011;60912;48.968;10.124;2024-03-22T06:59:07;14.77;;;7.30;;
71639;SDS011;60912;48.968;10.124;2024-03-22T07:01:32;10.10;;;7.30;;
71639;SDS011;60912;48.968;10.124;2024-03-22T07:03:57;12.10;;;7.47;;
71639;SDS011;60912;48.968;10.124;2024-03-22T07:06:23;11.43;;;7.93;;
71639;SDS011;60912;48.968;10.124;2024-03-22T07:08:48;12.87;;;8.00;;
71639;SDS011;60912;48.968;10.124;2024-03-22T07:11:13;9.97;;;7.50;;
71639;SDS011;60912;48.968;10.124;2024-03-22T07:13:39;12.47;;;7.90;;
71639;SDS011;60912;48.968;10.124;2024-03-22T07:16:04;13.97;;;7.93;;
71639;SDS011;60912;48.968;10.124;2024-03-22T07:18:30;12.25;;;8.70;;
71639;SDS011;60912;48.968;10.124;2024-03-22T07:20:55;11.37;;;7.73;;
71639;SDS011;60912;48.968;10.124;2024-03-22T07:23:22;12.77;;;8.43;;
71639;SDS011;60912;48.968;10.124;2024-03-22T07:25:48;14.60;;;8.20;;
71639;SDS011;60912;48.968;10.124;2024-03-22T07:28:13;11.77;;;7.83;;
71639;SDS011;60912;48.968;10.124;2024-03-22T07:30:40;10.70;;;8.07;;
71639;SDS011;60912;48.968;10.124;2024-03-22T07:33:06;12.05;;;7.70;;
71639;SDS011;60912;48.968;10.124;2024-03-22T07:35:34;11.77;;;7.13;;
71639;SDS011;60912;48.968;10.124;2024-03-22T07:37:59;12.25;;;7.40;;
71639;SDS011;60912;48.968;10.124;2024-03-22T07:40:25;12.93;;;7.00;;
71639;SDS011;60912;48.968;10.124;2024-03-22T07:42:50;10.82;;;7.22;;
71639;SDS011;60912;48.968;10.124;2024-03-22T07:45:16;12.43;;;7.60;;
71639;SDS011;60912;48.968;10.124;2024-03-22T07:47:41;10.43;;;6.60;;
71639;SDS011;60912;48.968;10.124;2024-03-22T07:50:08;9.63;;;6.55;;
71639;SDS011;60912;48.968;10.124;2024-03-22T07:52:34;9.67;;;6.17;;
71639;SDS011;60912;48.968;10.124;2024-03-22T07:54:59;9.25;;;6.50;;
71639;SDS011;60912;48.968;10.124;2024-03-22T07:57:27;9.77;;;6.23;;
71639;SDS011;60912;48.968;10.124;2024-03-22T07:59:53;11.35;;;6.45;;
71639;SDS011;60912;48.968;10.124;2024-03-22T08:02:18;10.50;;;6.53;;
71639;SDS011;60912;48.968;10.124;2024-03-22T08:04:46;9.63;;;6.55;;
71639;SDS011;60912;48.968;10.124;2024-03-22T08:07:11;9.13;;;6.93;;
71639;SDS011;60912;48.968;10.124;2024-03-22T08:09:37;8.97;;;6.20;;
71639;SDS011;60912;48.968;10.124;2024-03-22T08:12:02;9.50;;;6.57;;
71639;SDS011;60912;48.968;10.124;2024-03-22T08:14:28;11.23;;;6.82;;
71639;SDS011;60912;48.968;10.124;2024-03-22T08:16:53;10.00;;;6.53;;
71639;SDS011;60912;48.968;10.124;2024-03-22T08:19:18;8.70;;;6.00;;
71639;SDS011;60912;48.968;10.124;2024-03-22T08:21:44;10.20;;;7.00;;
71639;SDS011;60912;48.968;10.124;2024-03-22T08:24:09;9.73;;;6.13;;
71639;SDS011;60912;48.968;10.124;2024-03-22T08:26:35;10.10;;;5.82;;
71639;SDS011;60912;48.968;10.124;2024-03-22T08:29:00;8.87;;;5.60;;
71639;SDS011;60912;48.968;10.124;2024-03-22T08:31:25;9.80;;;6.30;;
71639;SDS011;60912;48.968;10.124;2024-03-22T08:33:53;8.18;;;5.15;;
71639;SDS011;60912;48.968;10.124;2024-03-22T08:36:20;12.00;;;5.83;;
71639;SDS011;60912;48.968;10.124;2024-03-22T08:38:46;9.85;;;5.80;;
71639;SDS011;60912;48.968;10.124;2024-03-22T08:41:11;8.33;;;5.80;;
71639;SDS011;60912;48.968;10.124;2024-03-22T08:43:37;8.60;;;5.47;;
71639;SDS011;60912;48.968;10.124;2024-03-22T08:46:02;9.07;;;5.43;;
71639;SDS011;60912;48.968;10.124;2024-03-22T08:48:28;8.88;;;5.93;;
71639;SDS011;60912;48.968;10.124;2024-03-22T08:50:54;9.33;;;5.67;;
71639;SDS011;60912;48.968;10.124;2024-03-22T08:53:19;12.43;;;6.47;;
71639;SDS011;60912;48.968;10.124;2024-03-22T08:55:47;8.17;;;5.70;;
71639;SDS011;60912;48.968;10.124;2024-03-22T08:58:16;7.70;;;5.50;;
71639;SDS011;60912;48.968;10.124;2024-03-22T09:00:43;7.43;;;5.63;;
71639;SDS011;60912;48.968;10.124;2024-03-22T09:03:09;10.05;;;6.63;;
71639;SDS011;60912;48.968;10.124;2024-03-22T09:05:34;9.53;;;5.50;;
71639;SDS011;60912;48.968;10.124;2024-03-22T09:07:59;8.77;;;5.60;;
71639;SDS011;60912;48.968;10.124;2024-03-22T09:10:26;10.17;;;5.40;;
71639;SDS011;60912;48.968;10.124;2024-03-22T09:12:51;5.95;;;4.10;;
71639;SDS011;60912;48.968;10.124;2024-03-22T09:15:17;8.17;;;3.70;;
71639;SDS011;60912;48.968;10.124;2024-03-22T09:17:42;5.47;;;3.70;;
71639;SDS011;60912;48.968;10.124;2024-03-22T09:20:08;6.70;;;3.88;;
71639;SDS011;60912;48.968;10.124;2024-03-22T09:22:33;7.67;;;3.90;;
71639;SDS011;60912;48.968;10.124;2024-03-22T09:24:59;6.25;;;3.58;;
71639;SDS011;60912;48.968;10.124;2024-03-22T09:27:25;5.47;;;3.60;;
71639;SDS011;60912;48.968;10.124;2024-03-22T09:29:50;6.47;;;3.60;;
71639;SDS011;60912;48.968;10.124;2024-03-22T09:32:15;6.13;;;3.67;;
71639;SDS011;60912;48.968;10.124;2024-03-22T09:34:41;6.03;;;3.50;;
71639;SDS011;60912;48.968;10.124;2024-03-22T09:37:07;5.33;;;3.10;;
71639;SDS011;60912;48.968;10.124;2024-03-22T09:39:33;5.85;;;3.10;;
71639;SDS011;60912;48.968;10.124;2024-03-22T09:41:59;6.60;;;3.85;;
71639;SDS011;60912;48.968;10.124;2024-03-22T09:44:27;7.23;;;3.80;;
71639;SDS011;60912;48.968;10.124;2024-03-22T09:46:52;6.18;;;3.70;;
71639;SDS011;60912;48.968;10.124;2024-03-22T09:49:18;6.13;;;3.83;;
71639;SDS011;60912;48.968;10.124;2024-03-22T09:51:44;9.40;;;4.00;;
71639;SDS011;60912;48.968;10.124;2024-03-22T09:54:11;7.18;;;3.75;;
71639;SDS011;60912;48.968;10.124;2024-03-22T09:56:40;8.17;;;3.33;;
71639;SDS011;60912;48.968;10.124;2024-03-22T09:59:07;5.63;;;3.50;;
71639;SDS011;60912;48.968;10.124;2024-03-22T10:01:33;6.67;;;3.53;;
71639;SDS011;60912;48.968;10.124;2024-03-22T10:03:59;7.93;;;3.50;;
71639;SDS011;60912;48.968;10.124;2024-03-22T10:06:25;5.90;;;3.10;;
71639;SDS011;60912;48.968;10.124;2024-03-22T10:08:50;7.30;;;3.73;;
71639;SDS011;60912;48.968;10.124;2024-03-22T10:11:16;7.45;;;3.28;;
71639;SDS011;60912;48.968;10.124;2024-03-22T10:13:41;5.77;;;3.40;;
71639;SDS011;60912;48.968;10.124;2024-03-22T10:16:07;6.07;;;3.40;;
71639;SDS011;60912;48.968;10.124;2024-03-22T10:18:33;4.97;;;3.30;;
71639;SDS011;60912;48.968;10.124;2024-03-22T10:21:02;8.32;;;3.10;;
71639;SDS011;60912;48.968;10.124;2024-03-22T10:23:29;6.10;;;3.50;;
71639;SDS011;60912;48.968;10.124;2024-03-22T10:25:58;6.28;;;3.10;;
71639;SDS011;60912;48.968;10.124;2024-03-22T10:28:24;6.07;;;3.10;;
71639;SDS011;60912;48.968;10.124;2024-03-22T10:30:50;5.63;;;3.30;;
71639;SDS011;60912;48.968;10.124;2024-03-22T10:33:18;6.63;;;3.40;;
71639;SDS011;60912;48.968;10.124;2024-03-22T10:35:44;9.25;;;3.70;;
71639;SDS011;60912;48.968;10.124;2024-03-22T10:38:11;6.43;;;3.40;;
71639;SDS011;60912;48.968;10.124;2024-03-22T10:40:38;7.33;;;3.70;;
71639;SDS011;60912;48.968;10.124;2024-03-22T10:43:04;9.20;;;3.70;;
71639;SDS011;60912;48.968;10.124;2024-03-22T10:45:29;6.03;;;3.00;;
71639;SDS011;60912;48.968;10.124;2024-03-22T10:47:56;6.88;;;3.25;;
71639;SDS011;60912;48.968;10.124;2024-03-22T10:50:22;12.25;;;4.00;;
71639;SDS011;60912;48.968;10.124;2024-03-22T10:52:56;7.25;;;3.40;;
71639;SDS011;60912;48.968;10.124;2024-03-22T10:55:27;6.47;;;3.47;;
71639;SDS011;60912;48.968;10.124;2024-03-22T10:57:56;7.35;;;3.65;;
71639;SDS011;60912;48.968;10.124;2024-03-22T11:00:28;6.68;;;3.67;;
71639;SDS011;60912;48.968;10.124;2024-03-22T11:02:55;4.03;;;2.70;;
71639;SDS011;60912;48.968;10.124;2024-03-22T11:05:20;8.57;;;3.27;;
71639;SDS011;60912;48.968;10.124;2024-03-22T11:07:46;6.63;;;3.30;;
71639;SDS011;60912;48.968;10.124;2024-03-22T11:10:12;7.10;;;3.63;;
71639;SDS011;60912;48.968;10.124;2024-03-22T11:12:38;7.40;;;3.30;;
71639;SDS011;60912;48.968;10.124;2024-03-22T11:15:05;6.45;;;3.53;;
71639;SDS011;60912;48.968;10.124;2024-03-22T11:17:30;5.97;;;3.17;;
71639;SDS011;60912;48.968;10.124;2024-03-22T11:19:56;7.07;;;3.42;;
71639;SDS011;60912;48.968;10.124;2024-03-22T11:22:22;6.90;;;3.07;;
71639;SDS011;60912;48.968;10.124;2024-03-22T11:24:47;7.15;;;2.80;;
71639;SDS011;60912;48.968;10.124;2024-03-22T11:27:13;6.20;;;3.00;;
71639;SDS011;60912;48.968;10.124;2024-03-22T11:29:39;5.82;;;3.08;;
71639;SDS011;60912;48.968;10.124;2024-03-22T11:32:07;5.28;;;2.58;;
71639;SDS011;60912;48.968;10.124;2024-03-22T11:34:36;5.37;;;2.80;;
71639;SDS011;60912;48.968;10.124;2024-03-22T11:37:02;5.85;;;2.97;;
71639;SDS011;60912;48.968;10.124;2024-03-22T11:39:28;7.72;;;3.13;;
71639;SDS011;60912;48.968;10.124;2024-03-22T11:41:54;7.13;;;3.03;;
71639;SDS011;60912;48.968;10.124;2024-03-22T11:44:20;6.43;;;3.00;;
71639;SDS011;60912;48.968;10.124;2024-03-22T11:46:47;4.78;;;2.70;;
71639;SDS011;60912;48.968;10.124;2024-03-22T11:49:13;4.93;;;2.67;;
71639;SDS011;60912;48.968;10.124;2024-03-22T11:51:38;4.63;;;2.80;;
71639;SDS011;60912;48.968;10.124;2024-03-22T11:54:04;5.72;;;2.70;;
71639;SDS011;60912;48.968;10.124;2024-03-22T11:56:34;5.93;;;2.85;;
71639;SDS011;60912;48.968;10.124;2024-03-22T11:59:00;5.45;;;2.60;;
71639;SDS011;60912;48.968;10.124;2024-03-22T12:01:28;5.23;;;2.60;;
71639;SDS011;60912;48.968;10.124;2024-03-22T12:03:53;5.68;;;2.33;;
71639;SDS011;60912;48.968;10.124;2024-03-22T12:06:19;4.40;;;2.30;;
71639;SDS011;60912;48.968;10.124;2024-03-22T12:08:45;4.95;;;2.22;;
71639;SDS011;60912;48.968;10.124;2024-03-22T12:11:11;7.97;;;2.67;;
71639;SDS011;60912;48.968;10.124;2024-03-22T12:13:39;4.75;;;2.40;;
71639;SDS011;60912;48.968;10.124;2024-03-22T12:16:04;5.17;;;2.70;;
71639;SDS011;60912;48.968;10.124;2024-03-22T12:18:30;4.45;;;2.30;;
71639;SDS011;60912;48.968;10.124;2024-03-22T12:20:56;3.42;;;2.10;;
71639;SDS011;60912;48.968;10.124;2024-03-22T12:23:22;4.70;;;2.40;;
71639;SDS011;60912;48.968;10.124;2024-03-22T12:25:51;4.78;;;2.60;;
71639;SDS011;60912;48.968;10.124;2024-03-22T12:28:17;4.90;;;2.67;;
71639;SDS011;60912;48.968;10.124;2024-03-22T12:30:43;4.13;;;2.37;;
71639;SDS011;60912;48.968;10.124;2024-03-22T12:33:09;5.87;;;2.30;;
71639;SDS011;60912;48.968;10.124;2024-03-22T12:35:36;5.32;;;2.33;;
71639;SDS011;60912;48.968;10.124;2024-03-22T12:38:02;5.25;;;2.05;;
71639;SDS011;60912;48.968;10.124;2024-03-22T12:40:28;5.55;;;2.17;;
71639;SDS011;60912;48.968;10.124;2024-03-22T12:42:54;7.18;;;2.13;;
71639;SDS011;60912;48.968;10.124;2024-03-22T12:45:20;5.43;;;2.33;;
71639;SDS011;60912;48.968;10.124;2024-03-22T12:47:45;4.77;;;1.97;;
71639;SDS011;60912;48.968;10.124;2024-03-22T12:50:11;3.97;;;2.13;;
71639;SDS011;60912;48.968;10.124;2024-03-22T12:52:38;4.57;;;1.90;;
71639;SDS011;60912;48.968;10.124;2024-03-22T12:55:04;3.70;;;1.52;;
71639;SDS011;60912;48.968;10.124;2024-03-22T12:57:31;6.18;;;1.90;;
71639;SDS011;60912;48.968;10.124;2024-03-22T12:59:56;4.87;;;2.10;;
71639;SDS011;60912;48.968;10.124;2024-03-22T13:02:22;7.50;;;2.10;;
71639;SDS011;60912;48.968;10.124;2024-03-22T13:04:48;4.47;;;1.92;;
71639;SDS011;60912;48.968;10.124;2024-03-22T13:07:14;5.38;;;2.67;;
71639;SDS011;60912;48.968;10.124;2024-03-22T13:09:40;5.65;;;2.55;;
71639;SDS011;60912;48.968;10.124;2024-03-22T13:12:09;4.67;;;2.60;;
71639;SDS011;60912;48.968;10.124;2024-03-22T13:14:35;5.28;;;2.90;;
71639;SDS011;60912;48.968;10.124;2024-03-22T13:17:00;4.93;;;2.50;;
71639;SDS011;60912;48.968;10.124;2024-03-22T13:19:26;4.07;;;2.10;;
71639;SDS011;60912;48.968;10.124;2024-03-22T13:21:52;5.78;;;2.40;;
71639;SDS011;60912;48.968;10.124;2024-03-22T13:24:17;4.40;;;2.50;;
71639;SDS011;60912;48.968;10.124;2024-03-22T13:26:44;5.13;;;2.10;;
71639;SDS011;60912;48.968;10.124;2024-03-22T13:29:09;4.90;;;2.17;;
71639;SDS011;60912;48.968;10.124;2024-03-22T13:31:35;4.60;;;2.10;;
71639;SDS011;60912;48.968;10.124;2024-03-22T13:34:00;4.40;;;1.90;;
71639;SDS011;60912;48.968;10.124;2024-03-22T13:36:26;3.77;;;2.10;;
71639;SDS011;60912;48.968;10.124;2024-03-22T13:38:51;6.00;;;2.00;;
71639;SDS011;60912;48.968;10.124;2024-03-22T13:41:16;3.40;;;2.00;;
71639;SDS011;60912;48.968;10.124;2024-03-22T13:43:42;5.20;;;2.20;;
71639;SDS011;60912;48.968;10.124;2024-03-22T13:46:09;5.53;;;2.10;;
71639;SDS011;60912;48.968;10.124;2024-03-22T13:48:43;6.88;;;2.45;;
71639;SDS011;60912;48.968;10.124;2024-03-22T13:51:14;6.95;;;2.63;;
71639;SDS011;60912;48.968;10.124;2024-03-22T13:53:39;11.47;;;3.00;;
71639;SDS011;60912;48.968;10.124;2024-03-22T13:56:05;5.63;;;2.60;;
71639;SDS011;60912;48.968;10.124;2024-03-22T13:58:31;4.90;;;2.58;;
71639;SDS011;60912;48.968;10.124;2024-03-22T14:00:56;7.63;;;2.73;;
71639;SDS011;60912;48.968;10.124;2024-03-22T14:03:21;4.43;;;2.87;;
71639;SDS011;60912;48.968;10.124;2024-03-22T14:05:47;6.97;;;3.50;;
71639;SDS011;60912;48.968;10.124;2024-03-22T14:08:12;5.97;;;3.20;;
71639;SDS011;60912;48.968;10.124;2024-03-22T14:10:37;5.73;;;3.30;;
71639;SDS011;60912;48.968;10.124;2024-03-22T14:13:03;4.87;;;2.83;;
71639;SDS011;60912;48.968;10.124;2024-03-22T14:15:32;5.30;;;2.80;;
71639;SDS011;60912;48.968;10.124;2024-03-22T14:18:00;5.78;;;3.35;;
71639;SDS011;60912;48.968;10.124;2024-03-22T14:20:25;6.23;;;3.20;;
71639;SDS011;60912;48.968;10.124;2024-03-22T14:22:51;7.13;;;3.30;;
71639;SDS011;60912;48.968;10.124;2024-03-22T14:25:16;6.03;;;3.40;;